createdAt,value
2022-11-26T00:00:49.035Z,6.95
2022-11-26T00:03:17.069Z,6.38
2022-11-26T00:05:45.668Z,5.75
2022-11-26T00:08:33.919Z,5.65
2022-11-26T00:11:01.987Z,6.38
2022-11-26T00:13:31.816Z,6.05
2022-11-26T00:15:59.347Z,5.82
2022-11-26T00:18:27.130Z,6.07
2022-11-26T00:20:56.168Z,6.05
2022-11-26T00:23:24.996Z,5.68
2022-11-26T00:25:55.666Z,6.30
2022-11-26T00:28:36.532Z,6.78
2022-11-26T00:31:06.129Z,6.18
2022-11-26T00:33:33.867Z,6.88
2022-11-26T00:36:27.190Z,6.68
2022-11-26T00:38:58.264Z,5.93
2022-11-26T00:41:26.906Z,5.60
2022-11-26T00:43:54.589Z,5.90
2022-11-26T00:46:23.196Z,5.30
2022-11-26T00:48:50.857Z,5.90
2022-11-26T00:51:26.779Z,4.97
2022-11-26T00:54:00.128Z,5.70
2022-11-26T00:56:28.205Z,5.33
2022-11-26T00:58:55.814Z,5.82
2022-11-26T01:01:24.716Z,5.13
2022-11-26T01:03:52.959Z,6.10
2022-11-26T01:06:24.539Z,5.63
2022-11-26T01:08:52.110Z,5.72
2022-11-26T01:11:24.286Z,5.72
2022-11-26T01:13:52.766Z,5.82
2022-11-26T01:16:26.146Z,5.65
2022-11-26T01:18:55.409Z,5.87
2022-11-26T01:21:23.707Z,6.05
2022-11-26T01:23:51.469Z,5.97
2022-11-26T01:26:20.679Z,6.25
2022-11-26T01:28:48.352Z,4.93
2022-11-26T01:31:19.858Z,5.63
2022-11-26T01:33:48.092Z,5.97
2022-11-26T01:36:21.899Z,5.00
2022-11-26T01:38:49.757Z,5.28
2022-11-26T01:41:20.365Z,5.50
2022-11-26T01:43:48.679Z,5.75
2022-11-26T01:46:17.383Z,5.50
2022-11-26T01:48:45.207Z,4.68
2022-11-26T01:51:13.479Z,4.90
2022-11-26T01:53:44.147Z,4.90
2022-11-26T01:56:14.714Z,5.38
2022-11-26T01:58:44.307Z,6.03
2022-11-26T02:01:12.088Z,4.88
2022-11-26T02:03:43.766Z,4.50
2022-11-26T02:06:17.943Z,4.72
2022-11-26T02:11:15.889Z,4.70
2022-11-26T02:13:43.686Z,3.83
2022-11-26T02:16:19.880Z,4.38
2022-11-26T02:18:51.570Z,4.30
2022-11-26T02:21:25.629Z,4.20
2022-11-26T02:24:11.890Z,4.72
2022-11-26T02:26:52.967Z,5.25
2022-11-26T02:29:20.508Z,5.90
2022-11-26T02:32:01.973Z,5.00
2022-11-26T02:34:40.580Z,4.50
2022-11-26T02:37:15.994Z,5.03
2022-11-26T02:39:43.406Z,4.57
2022-11-26T02:42:23.436Z,4.32
2022-11-26T02:44:50.958Z,5.10
2022-11-26T02:47:19.189Z,4.65
2022-11-26T02:49:46.907Z,4.68
2022-11-26T02:52:15.975Z,4.00
2022-11-26T02:54:44.795Z,4.43
2022-11-26T02:57:13.945Z,4.32
2022-11-26T02:59:41.567Z,4.82
2022-11-26T03:02:18.436Z,4.75
2022-11-26T03:04:49.451Z,4.40
2022-11-26T03:07:17.461Z,4.85
2022-11-26T03:09:52.901Z,4.95
2022-11-26T03:12:20.890Z,4.50
2022-11-26T03:14:48.541Z,4.75
2022-11-26T03:17:16.467Z,4.70
2022-11-26T03:19:43.960Z,4.10
2022-11-26T03:22:12.157Z,5.18
2022-11-26T03:24:40.187Z,4.97
2022-11-26T03:27:07.815Z,4.47
2022-11-26T03:29:35.379Z,4.82
2022-11-26T03:32:02.969Z,5.20
2022-11-26T03:34:30.644Z,4.30
2022-11-26T03:36:58.526Z,5.05
2022-11-26T03:39:26.150Z,5.15
2022-11-26T03:41:53.866Z,4.70
2022-11-26T03:44:21.537Z,4.22
2022-11-26T03:46:49.219Z,4.93
2022-11-26T03:49:17.046Z,4.30
2022-11-26T03:51:44.837Z,4.80
2022-11-26T03:54:12.376Z,5.18
2022-11-26T03:56:40.110Z,4.63
2022-11-26T03:59:07.967Z,5.40
2022-11-26T04:01:35.674Z,4.15
2022-11-26T04:04:03.307Z,4.60
2022-11-26T04:06:30.815Z,5.40
2022-11-26T04:08:58.407Z,5.47
2022-11-26T04:11:26.187Z,5.43
2022-11-26T04:13:53.536Z,4.82
2022-11-26T04:16:21.323Z,4.90
2022-11-26T04:18:49.378Z,5.32
2022-11-26T04:21:16.975Z,4.82
2022-11-26T04:23:44.727Z,5.55
2022-11-26T04:26:12.321Z,5.68
2022-11-26T04:28:39.887Z,4.82
2022-11-26T04:31:08.315Z,4.57
2022-11-26T04:33:35.807Z,5.40
2022-11-26T04:36:03.544Z,4.75
2022-11-26T04:38:31.542Z,5.07
2022-11-26T04:40:59.360Z,5.65
2022-11-26T04:43:26.888Z,5.22
2022-11-26T04:45:54.666Z,4.65
2022-11-26T04:48:22.430Z,5.60
2022-11-26T04:50:51.217Z,5.30
2022-11-26T04:53:22.288Z,4.65
2022-11-26T04:55:51.030Z,5.63
2022-11-26T04:58:19.455Z,5.25
2022-11-26T05:00:50.689Z,5.05
2022-11-26T05:03:19.129Z,4.63
2022-11-26T05:05:47.373Z,5.32
2022-11-26T05:08:14.958Z,5.22
2022-11-26T05:10:42.517Z,4.50
2022-11-26T05:13:10.424Z,5.18
2022-11-26T05:15:37.847Z,4.57
2022-11-26T05:18:05.520Z,4.53
2022-11-26T05:20:33.167Z,5.25
2022-11-26T05:23:00.877Z,5.47
2022-11-26T05:25:28.376Z,5.47
2022-11-26T05:27:56.152Z,4.78
2022-11-26T05:30:23.757Z,5.38
2022-11-26T05:32:51.217Z,5.22
2022-11-26T05:35:18.790Z,5.03
2022-11-26T05:37:46.406Z,4.50
2022-11-26T05:40:14.030Z,5.60
2022-11-26T05:42:41.670Z,6.03
2022-11-26T05:45:10.157Z,5.68
2022-11-26T05:47:37.915Z,5.07
2022-11-26T05:50:05.518Z,6.15
2022-11-26T05:52:32.965Z,5.55
2022-11-26T05:55:00.277Z,5.65
2022-11-26T05:57:28.087Z,6.55
2022-11-26T05:59:55.467Z,6.10
2022-11-26T06:02:23.341Z,6.13
2022-11-26T06:04:50.898Z,6.03
2022-11-26T06:07:18.962Z,5.63
2022-11-26T06:09:46.457Z,6.13
2022-11-26T06:12:13.989Z,5.57
2022-11-26T06:14:43.380Z,5.45
2022-11-26T06:17:12.106Z,6.65
2022-11-26T06:19:40.019Z,6.00
2022-11-26T06:22:07.730Z,6.90
2022-11-26T06:24:35.716Z,6.30
2022-11-26T06:27:03.399Z,6.88
2022-11-26T06:29:31.131Z,6.03
2022-11-26T06:31:58.619Z,5.63
2022-11-26T06:34:26.180Z,6.68
2022-11-26T06:36:53.927Z,5.63
2022-11-26T06:39:21.646Z,5.72
2022-11-26T06:41:49.187Z,5.72
2022-11-26T06:44:16.643Z,6.40
2022-11-26T06:46:44.306Z,6.50
2022-11-26T06:49:11.907Z,5.80
2022-11-26T06:51:39.339Z,6.85
2022-11-26T06:54:07.568Z,7.03
2022-11-26T06:56:36.106Z,7.22
2022-11-26T06:59:03.648Z,7.70
2022-11-26T07:01:31.424Z,8.10
2022-11-26T07:03:59.616Z,8.32
2022-11-26T07:06:28.266Z,8.55
2022-11-26T07:08:56.706Z,8.23
2022-11-26T07:11:25.059Z,7.35
2022-11-26T07:13:52.930Z,7.32
2022-11-26T07:16:20.848Z,7.20
2022-11-26T07:18:49.547Z,6.20
2022-11-26T07:21:17.683Z,6.18
2022-11-26T07:23:45.396Z,6.18
2022-11-26T07:26:13.280Z,6.47
2022-11-26T07:28:41.560Z,5.05
2022-11-26T07:31:16.243Z,4.72
2022-11-26T07:33:44.572Z,5.32
2022-11-26T07:36:31.819Z,5.32
2022-11-26T07:39:00.157Z,5.25
2022-11-26T07:41:27.749Z,5.35
2022-11-26T07:43:55.859Z,5.60
2022-11-26T07:46:25.601Z,5.80
2022-11-26T07:48:53.515Z,6.00
2022-11-26T07:51:25.297Z,6.30
2022-11-26T07:53:53.596Z,6.15
2022-11-26T07:56:20.949Z,7.05
2022-11-26T07:58:49.075Z,5.13
2022-11-26T08:01:18.469Z,5.70
2022-11-26T08:03:47.173Z,6.85
2022-11-26T08:06:16.291Z,7.07
2022-11-26T08:08:44.038Z,8.88
2022-11-26T08:11:15.739Z,6.47
2022-11-26T08:13:44.050Z,5.63
2022-11-26T08:16:11.680Z,6.57
2022-11-26T08:18:39.917Z,6.68
2022-11-26T08:21:07.420Z,6.25
2022-11-26T08:23:35.326Z,6.45
2022-11-26T08:26:22.715Z,7.35
2022-11-26T08:28:51.946Z,7.32
2022-11-26T08:31:19.646Z,6.88
2022-11-26T08:33:47.387Z,7.38
2022-11-26T08:36:15.179Z,7.10
2022-11-26T08:38:42.815Z,7.38
2022-11-26T08:41:11.896Z,8.00
2022-11-26T08:44:05.060Z,8.00
2022-11-26T08:46:27.073Z,7.68
2022-11-26T08:48:56.617Z,8.20
2022-11-26T08:51:24.378Z,8.48
2022-11-26T08:53:51.939Z,7.97
2022-11-26T08:56:19.758Z,8.68
2022-11-26T08:58:49.335Z,7.45
2022-11-26T09:01:17.049Z,8.30
2022-11-26T09:03:45.102Z,9.18
2022-11-26T09:06:12.640Z,7.90
2022-11-26T09:08:58.941Z,8.27
2022-11-26T09:11:27.206Z,9.07
2022-11-26T09:13:54.993Z,9.10
2022-11-26T09:16:23.524Z,8.23
2022-11-26T09:18:52.145Z,8.38
2022-11-26T09:21:20.059Z,11.50
2022-11-26T09:23:47.503Z,12.20
2022-11-26T09:26:15.047Z,9.90
2022-11-26T09:28:42.579Z,10.85
2022-11-26T09:31:10.221Z,9.02
2022-11-26T09:33:37.734Z,8.45
2022-11-26T09:36:07.386Z,9.57
2022-11-26T09:38:35.755Z,9.82
2022-11-26T09:41:03.426Z,9.82
2022-11-26T09:43:37.824Z,8.73
2022-11-26T09:46:05.588Z,8.88
2022-11-26T09:48:34.447Z,8.82
2022-11-26T09:51:07.656Z,8.50
2022-11-26T09:53:41.317Z,8.40
2022-11-26T09:56:12.516Z,15.80
2022-11-26T09:58:43.076Z,14.00
2022-11-26T10:01:14.220Z,11.32
2022-11-26T10:03:42.653Z,12.10
2022-11-26T10:06:29.316Z,15.18
2022-11-26T10:09:09.017Z,8.82
2022-11-26T10:11:42.252Z,8.85
2022-11-26T10:14:28.818Z,8.70
2022-11-26T10:17:14.997Z,9.82
2022-11-26T10:19:42.626Z,8.30
2022-11-26T10:22:21.080Z,9.48
2022-11-26T10:24:50.206Z,10.20
2022-11-26T10:27:18.757Z,9.35
2022-11-26T10:30:06.490Z,8.85
2022-11-26T10:32:37.767Z,10.98
2022-11-26T10:35:05.586Z,10.52
2022-11-26T10:37:33.216Z,9.45
2022-11-26T10:40:19.622Z,12.18
2022-11-26T10:42:58.195Z,8.80
2022-11-26T10:45:27.739Z,7.60
2022-11-26T10:48:17.442Z,9.98
2022-11-26T10:50:55.683Z,9.27
2022-11-26T10:53:24.039Z,8.70
2022-11-26T10:55:53.066Z,9.13
2022-11-26T10:58:22.958Z,8.15
2022-11-26T11:00:50.629Z,7.60
2022-11-26T11:06:23.280Z,6.97
2022-11-26T11:08:52.526Z,8.23
2022-11-26T11:11:20.640Z,8.05
2022-11-26T11:13:49.051Z,9.57
2022-11-26T11:16:19.570Z,7.95
2022-11-26T11:18:57.200Z,7.65
2022-11-26T11:21:27.176Z,7.57
2022-11-26T11:24:09.099Z,7.05
2022-11-26T11:26:42.696Z,6.68
2022-11-26T11:29:25.637Z,7.40
2022-11-26T11:31:53.463Z,7.10
2022-11-26T11:34:23.734Z,8.02
2022-11-26T11:37:14.899Z,5.90
2022-11-26T11:39:43.647Z,9.57
2022-11-26T11:42:40.800Z,7.85
2022-11-26T11:45:20.467Z,7.20
2022-11-26T11:47:53.162Z,13.02
2022-11-26T11:50:52.872Z,9.55
2022-11-26T11:53:23.700Z,13.13
2022-11-26T11:56:08.667Z,13.27
2022-11-26T11:58:39.374Z,9.82
2022-11-26T12:01:16.187Z,11.07
2022-11-26T12:04:08.500Z,6.13
2022-11-26T12:06:42.801Z,8.43
2022-11-26T12:09:16.645Z,18.40
2022-11-26T12:11:46.486Z,13.50
2022-11-26T12:14:34.120Z,14.88
2022-11-26T12:17:04.862Z,8.13
2022-11-26T12:19:35.567Z,29.60
2022-11-26T12:22:08.764Z,10.27
2022-11-26T12:24:40.486Z,19.77
2022-11-26T12:27:16.570Z,12.35
2022-11-26T12:29:47.142Z,7.63
2022-11-26T12:32:32.569Z,8.32
2022-11-26T12:35:04.577Z,7.53
2022-11-26T12:37:39.598Z,7.28
2022-11-26T12:40:17.851Z,7.07
2022-11-26T12:42:48.409Z,6.78
2022-11-26T12:45:19.400Z,6.88
2022-11-26T12:47:56.140Z,6.00
2022-11-26T12:50:42.439Z,6.50
2022-11-26T12:53:18.978Z,6.10
2022-11-26T12:56:00.444Z,5.53
2022-11-26T12:58:43.127Z,6.75
2022-11-26T13:01:11.742Z,6.93
2022-11-26T13:03:39.587Z,7.90
2022-11-26T13:06:07.459Z,7.20
2022-11-26T13:08:45.854Z,7.38
2022-11-26T13:11:27.560Z,7.32
2022-11-26T13:14:15.289Z,7.90
2022-11-26T13:16:58.500Z,6.93
2022-11-26T13:19:32.279Z,6.65
2022-11-26T13:22:18.686Z,6.72
2022-11-26T13:25:06.547Z,7.43
2022-11-26T13:27:53.298Z,7.43
2022-11-26T13:30:27.057Z,6.85
2022-11-26T13:33:00.656Z,8.15
2022-11-26T13:35:46.616Z,7.32
2022-11-26T13:38:17.146Z,8.63
2022-11-26T13:40:44.960Z,8.10
2022-11-26T13:43:31.416Z,7.75
2022-11-26T13:45:59.009Z,7.85
2022-11-26T13:48:32.766Z,8.23
2022-11-26T13:51:06.110Z,7.85
2022-11-26T13:53:40.159Z,8.23
2022-11-26T13:56:08.768Z,8.18
2022-11-26T13:58:42.337Z,9.05
2022-11-26T14:01:28.707Z,7.72
2022-11-26T14:03:57.241Z,8.57
2022-11-26T14:06:24.976Z,8.65
2022-11-26T14:08:53.489Z,17.75
2022-11-26T14:11:39.789Z,12.63
2022-11-26T14:14:25.745Z,14.20
2022-11-26T14:17:02.453Z,10.10
2022-11-26T14:19:57.146Z,9.23
2022-11-26T14:22:24.549Z,7.85
2022-11-26T14:24:52.366Z,8.15
2022-11-26T14:27:20.185Z,7.43
2022-11-26T14:29:49.440Z,7.57
2022-11-26T14:32:21.676Z,7.25
2022-11-26T14:34:58.828Z,8.35
2022-11-26T14:37:28.216Z,7.28
2022-11-26T14:40:03.392Z,7.68
2022-11-26T14:42:30.746Z,7.47
2022-11-26T14:45:02.629Z,6.45
2022-11-26T14:47:31.181Z,7.32
2022-11-26T14:50:01.822Z,7.30
2022-11-26T14:52:34.506Z,7.63
2022-11-26T14:55:07.958Z,6.90
2022-11-26T14:57:35.726Z,7.10
2022-11-26T15:00:05.730Z,6.85
2022-11-26T15:02:33.752Z,7.43
2022-11-26T15:05:13.409Z,6.72
2022-11-26T15:07:40.942Z,6.90
2022-11-26T15:10:14.560Z,7.47
2022-11-26T15:12:43.141Z,7.25
2022-11-26T15:15:14.583Z,7.05
2022-11-26T15:17:44.161Z,7.10
2022-11-26T15:20:15.283Z,7.65
2022-11-26T15:22:44.738Z,7.35
2022-11-26T15:25:17.670Z,7.05
2022-11-26T15:28:05.303Z,7.47
2022-11-26T15:30:37.047Z,7.50
2022-11-26T15:33:15.051Z,8.10
2022-11-26T15:35:43.959Z,8.32
2022-11-26T15:38:18.390Z,7.68
2022-11-26T15:40:55.190Z,7.40
2022-11-26T15:43:25.153Z,6.90
2022-11-26T15:45:55.099Z,8.23
2022-11-26T15:48:50.063Z,7.55
2022-11-26T15:51:14.720Z,7.80
2022-11-26T15:53:47.340Z,8.00
2022-11-26T15:56:19.209Z,8.27
2022-11-26T15:58:48.854Z,6.95
2022-11-26T16:01:18.610Z,8.07
2022-11-26T16:03:48.021Z,9.15
2022-11-26T16:06:51.251Z,8.23
2022-11-26T16:09:32.081Z,9.98
2022-11-26T16:12:00.824Z,10.48
2022-11-26T16:14:31.483Z,13.95
2022-11-26T16:17:08.022Z,15.10
2022-11-26T16:19:36.914Z,17.30
2022-11-26T16:22:05.631Z,19.65
2022-11-26T16:24:42.477Z,21.25
2022-11-26T16:27:21.351Z,26.05
2022-11-26T16:29:48.870Z,25.95
2022-11-26T16:32:17.220Z,24.13
2022-11-26T16:34:45.265Z,16.55
2022-11-26T16:37:29.834Z,13.15
2022-11-26T16:40:01.744Z,12.10
2022-11-26T16:42:31.154Z,11.65
2022-11-26T16:47:51.623Z,12.80
2022-11-26T16:50:25.143Z,10.43
2022-11-26T16:52:52.984Z,9.13
2022-11-26T16:55:22.830Z,9.95
2022-11-26T16:57:52.018Z,12.57
2022-11-26T17:00:21.291Z,14.70
2022-11-26T17:02:49.445Z,19.95
2022-11-26T17:05:17.740Z,20.23
2022-11-26T17:07:48.072Z,18.48
2022-11-26T17:10:20.143Z,16.90
2022-11-26T17:12:47.867Z,19.05
2022-11-26T17:15:15.421Z,19.17
2022-11-26T17:17:43.141Z,18.05
2022-11-26T17:20:27.378Z,17.15
2022-11-26T17:22:55.120Z,17.88
2022-11-26T17:25:23.064Z,12.30
2022-11-26T17:27:50.663Z,12.40
2022-11-26T17:30:19.920Z,12.02
2022-11-26T17:32:47.720Z,13.00
2022-11-26T17:35:15.519Z,13.85
2022-11-26T17:37:43.880Z,13.73
2022-11-26T17:40:22.514Z,14.15
2022-11-26T17:42:50.585Z,16.60
2022-11-26T17:45:19.139Z,20.50
2022-11-26T17:47:46.853Z,17.95
2022-11-26T17:50:24.734Z,20.13
2022-11-26T17:52:52.948Z,20.27
2022-11-26T17:55:21.601Z,19.65
2022-11-26T17:57:49.468Z,18.42
2022-11-26T18:00:21.754Z,17.58
2022-11-26T18:02:49.382Z,15.95
2022-11-26T18:05:17.155Z,15.93
2022-11-26T18:07:44.753Z,15.52
2022-11-26T18:10:13.969Z,14.35
2022-11-26T18:12:41.596Z,9.27
2022-11-26T18:15:09.381Z,11.05
2022-11-26T18:17:36.954Z,10.52
2022-11-26T18:20:04.460Z,9.93
2022-11-26T18:22:32.180Z,10.52
2022-11-26T18:25:00.259Z,9.30
2022-11-26T18:27:29.078Z,9.80
2022-11-26T18:29:56.867Z,13.82
2022-11-26T18:32:24.650Z,17.02
2022-11-26T18:34:52.470Z,18.27
2022-11-26T18:37:20.301Z,20.80
2022-11-26T18:39:47.708Z,20.67
2022-11-26T18:42:36.082Z,20.45
2022-11-26T18:45:03.962Z,19.15
2022-11-26T18:47:31.416Z,23.60
2022-11-26T18:49:59.010Z,21.20
2022-11-26T18:52:26.610Z,15.57
2022-11-26T18:54:54.373Z,21.98
2022-11-26T18:57:21.840Z,18.45
2022-11-26T18:59:50.786Z,16.23
2022-11-26T19:02:18.589Z,14.15
2022-11-26T19:04:46.273Z,13.95
2022-11-26T19:07:14.443Z,12.15
2022-11-26T19:09:42.695Z,11.43
2022-11-26T19:12:11.128Z,10.88
2022-11-26T19:14:38.903Z,14.95
2022-11-26T19:17:06.536Z,15.32
2022-11-26T19:19:34.491Z,23.95
2022-11-26T19:22:02.210Z,22.17
2022-11-26T19:24:30.862Z,23.30
2022-11-26T19:26:58.960Z,23.23
2022-11-26T19:29:26.550Z,20.27
2022-11-26T19:31:54.404Z,17.42
2022-11-26T19:34:21.904Z,16.92
2022-11-26T19:36:49.737Z,16.58
2022-11-26T19:39:18.899Z,18.25
2022-11-26T19:41:46.631Z,17.42
2022-11-26T19:44:14.304Z,19.63
2022-11-26T19:46:42.149Z,21.45
2022-11-26T19:49:12.720Z,20.00
2022-11-26T19:51:40.802Z,22.08
2022-11-26T19:54:08.759Z,20.98
2022-11-26T19:56:36.803Z,20.15
2022-11-26T19:59:04.724Z,19.33
2022-11-26T20:01:33.489Z,17.90
2022-11-26T20:04:02.498Z,14.80
2022-11-26T20:06:30.824Z,12.73
2022-11-26T20:08:59.370Z,15.13
2022-11-26T20:11:27.630Z,13.05
2022-11-26T20:13:56.153Z,13.38
2022-11-26T20:16:26.170Z,11.32
2022-11-26T20:18:53.897Z,10.40
2022-11-26T20:21:22.670Z,9.38
2022-11-26T20:23:51.100Z,9.52
2022-11-26T20:26:18.590Z,8.48
2022-11-26T20:28:46.387Z,8.60
2022-11-26T20:31:17.239Z,9.80
2022-11-26T20:33:48.373Z,13.18
2022-11-26T20:36:16.720Z,15.20
2022-11-26T20:38:44.434Z,17.17
2022-11-26T20:41:13.059Z,19.50
2022-11-26T20:43:40.683Z,21.02
2022-11-26T20:46:08.983Z,23.38
2022-11-26T20:48:37.401Z,21.15
2022-11-26T20:51:05.513Z,18.67
2022-11-26T20:53:33.911Z,17.73
2022-11-26T20:56:01.885Z,16.05
2022-11-26T20:58:30.215Z,15.50
2022-11-26T21:00:59.014Z,14.95
2022-11-26T21:03:27.655Z,15.55
2022-11-26T21:05:55.810Z,15.25
2022-11-26T21:08:23.910Z,15.10
2022-11-26T21:10:51.587Z,14.45
2022-11-26T21:13:21.195Z,12.52
2022-11-26T21:15:48.788Z,12.57
2022-11-26T21:18:16.826Z,12.85
2022-11-26T21:20:45.081Z,13.45
2022-11-26T21:23:13.693Z,11.90
2022-11-26T21:25:42.154Z,12.35
2022-11-26T21:28:10.709Z,12.70
2022-11-26T21:30:38.702Z,13.15
2022-11-26T21:33:09.463Z,14.35
2022-11-26T21:35:37.800Z,12.75
2022-11-26T21:38:06.785Z,13.65
2022-11-26T21:40:34.370Z,14.23
2022-11-26T21:43:02.138Z,14.73
2022-11-26T21:45:30.030Z,15.18
2022-11-26T21:47:57.803Z,14.15
2022-11-26T21:50:25.321Z,16.88
2022-11-26T21:52:53.019Z,19.15
2022-11-26T21:55:21.955Z,16.75
2022-11-26T21:57:49.370Z,15.07
2022-11-26T22:00:18.661Z,13.10
2022-11-26T22:02:46.102Z,14.18
2022-11-26T22:05:13.903Z,13.15
2022-11-26T22:07:42.064Z,14.02
2022-11-26T22:10:10.304Z,12.85
2022-11-26T22:12:37.781Z,14.07
2022-11-26T22:15:05.422Z,13.90
2022-11-26T22:17:33.191Z,13.27
2022-11-26T22:20:00.984Z,13.00
2022-11-26T22:22:28.502Z,12.85
2022-11-26T22:24:56.019Z,13.60
2022-11-26T22:27:23.565Z,12.48
2022-11-26T22:29:51.527Z,11.88
2022-11-26T22:32:19.297Z,12.65
2022-11-26T22:34:46.783Z,13.07
2022-11-26T22:37:14.480Z,12.93
2022-11-26T22:39:42.152Z,11.70
2022-11-26T22:42:09.800Z,12.65
2022-11-26T22:44:37.393Z,11.93
2022-11-26T22:47:04.985Z,12.43
2022-11-26T22:49:33.263Z,12.63
2022-11-26T22:52:00.851Z,15.10
2022-11-26T22:54:28.404Z,13.18
2022-11-26T22:56:56.195Z,14.65
2022-11-26T22:59:23.764Z,13.05
2022-11-26T23:01:55.841Z,15.40
2022-11-26T23:04:23.804Z,15.07
2022-11-26T23:06:51.563Z,15.18
2022-11-26T23:09:19.468Z,15.50
2022-11-26T23:11:46.963Z,15.80
2022-11-26T23:14:14.460Z,16.17
2022-11-26T23:16:43.054Z,15.95
2022-11-26T23:19:11.191Z,15.30
2022-11-26T23:21:40.133Z,16.85
2022-11-26T23:24:07.993Z,16.52
2022-11-26T23:26:36.039Z,15.93
2022-11-26T23:29:04.281Z,15.07
2022-11-26T23:31:33.223Z,14.95
2022-11-26T23:34:01.372Z,15.52
2022-11-26T23:36:29.413Z,17.42
2022-11-26T23:38:57.290Z,17.33
2022-11-26T23:41:24.733Z,18.13
2022-11-26T23:43:52.240Z,16.75
2022-11-26T23:46:22.157Z,15.25
2022-11-26T23:48:49.985Z,15.45
2022-11-26T23:51:19.642Z,16.63
2022-11-26T23:53:48.829Z,15.10
2022-11-26T23:56:19.092Z,15.38
2022-11-26T23:58:49.070Z,14.13
